Time;durP1;ratioP1;P1;durP2;ratioP2;P2;SDS_P1;SDS_P2;PMS_P1;PMS_P2;Temp;Humidity;BMP_temperature;BMP_pressure;BME280_temperature;BME280_humidity;BME280_pressure;Samples;Min_cycle;Max_cycle;Signal;HPM_P1;HPM_P2
2023/11/23 00:00:12;;;;;;;112.13;31.77;;;;;;;-1.47;100.00;98472.56;5040585;28;20417;-82
2023/11/23 00:02:41;;;;;;;188.20;48.83;;;;;;;-1.49;100.00;98461.50;5041167;28;20453;-84
2023/11/23 00:05:08;;;;;;;196.25;49.72;;;;;;;-1.46;100.00;98464.63;5043954;28;20399;-84
2023/11/23 00:07:35;;;;;;;164.32;41.95;;;;;;;-1.41;100.00;98483.19;5047281;28;20454;-84
2023/11/23 00:10:04;;;;;;;144.35;40.08;;;;;;;-1.39;100.00;98490.81;5043016;28;20403;-85
2023/11/23 00:12:30;;;;;;;139.05;38.03;;;;;;;-1.38;100.00;98495.88;5041561;28;20394;-84
2023/11/23 00:14:56;;;;;;;127.53;34.35;;;;;;;-1.39;100.00;98504.63;5041696;28;20399;-82
2023/11/23 00:17:22;;;;;;;128.88;34.58;;;;;;;-1.41;100.00;98490.16;5049244;28;20415;-86
2023/11/23 00:19:50;;;;;;;115.90;31.50;;;;;;;-1.43;100.00;98487.72;5044080;28;20494;-83
2023/11/23 00:22:17;;;;;;;130.27;33.80;;;;;;;-1.45;100.00;98483.63;5043497;28;20471;-84
2023/11/23 00:24:43;;;;;;;141.63;35.20;;;;;;;-1.46;100.00;98477.63;5044120;28;20926;-84
2023/11/23 00:27:09;;;;;;;191.85;44.10;;;;;;;-1.49;100.00;98462.31;5044591;28;20426;-85
2023/11/23 00:29:36;;;;;;;198.18;46.47;;;;;;;-1.48;100.00;98452.75;5049638;28;20410;-84
2023/11/23 00:32:03;;;;;;;152.50;39.78;;;;;;;-1.48;100.00;98463.16;5045633;28;20395;-82
2023/11/23 00:34:29;;;;;;;165.25;40.70;;;;;;;-1.47;100.00;98467.38;5042731;28;20411;-85
2023/11/23 00:36:57;;;;;;;155.98;38.35;;;;;;;-1.47;100.00;98477.75;5042118;28;20425;-84
2023/11/23 00:39:23;;;;;;;134.13;32.92;;;;;;;-1.48;100.00;98474.34;5046585;28;20403;-83
2023/11/23 00:41:49;;;;;;;209.95;48.63;;;;;;;-1.48;100.00;98482.13;5041729;28;20423;-83
2023/11/23 00:44:17;;;;;;;145.07;37.10;;;;;;;-1.46;100.00;98464.63;5044301;28;20407;-83
2023/11/23 00:46:45;;;;;;;180.27;42.05;;;;;;;-1.44;100.00;98457.53;5045329;28;20411;-84
2023/11/23 00:49:11;;;;;;;167.00;40.28;;;;;;;-1.40;100.00;98471.84;5046117;28;20736;-85
2023/11/23 00:51:37;;;;;;;154.15;37.85;;;;;;;-1.35;100.00;98466.19;5046844;28;20477;-83
2023/11/23 00:54:05;;;;;;;162.10;38.05;;;;;;;-1.31;100.00;98457.97;5048215;28;20399;-85
2023/11/23 00:56:31;;;;;;;189.45;41.55;;;;;;;-1.27;100.00;98461.88;5048053;28;20399;-85
2023/11/23 00:58:57;;;;;;;144.25;34.47;;;;;;;-1.24;100.00;98456.38;5047061;28;20407;-83
2023/11/23 01:01:23;;;;;;;186.95;41.95;;;;;;;-1.19;100.00;98459.34;5048855;28;20466;-83
2023/11/23 01:03:49;;;;;;;154.98;35.90;;;;;;;-1.18;100.00;98458.38;5049035;28;20414;-85
2023/11/23 01:06:16;;;;;;;162.68;36.80;;;;;;;-1.13;100.00;98457.13;5049597;28;20396;-85
2023/11/23 01:08:42;;;;;;;186.32;40.90;;;;;;;-1.11;100.00;98457.78;5051169;28;20414;-83
2023/11/23 01:11:09;;;;;;;181.73;40.50;;;;;;;-1.07;100.00;98452.16;5050265;28;20740;-82
2023/11/23 01:13:35;;;;;;;169.55;40.53;;;;;;;-1.05;100.00;98447.59;5045883;28;20803;-85
2023/11/23 01:16:02;;;;;;;161.70;38.78;;;;;;;-1.01;100.00;98456.72;5043471;28;20875;-84
2023/11/23 01:18:28;;;;;;;176.30;40.20;;;;;;;-0.99;100.00;98462.59;5043987;28;20399;-84
2023/11/23 01:20:54;;;;;;;139.97;33.37;;;;;;;-0.99;100.00;98469.56;5042549;28;20399;-83
2023/11/23 01:23:20;;;;;;;136.18;32.70;;;;;;;-0.99;100.00;98466.97;5042114;28;20413;-84
2023/11/23 01:25:46;;;;;;;126.57;29.92;;;;;;;-1.01;100.00;98474.91;5043364;28;20399;-84
2023/11/23 01:28:14;;;;;;;134.30;32.77;;;;;;;-1.01;100.00;98472.31;5042909;28;20415;-84
2023/11/23 01:30:40;;;;;;;105.88;27.90;;;;;;;-1.03;100.00;98471.66;5041821;28;20399;-83
2023/11/23 01:33:07;;;;;;;145.10;34.15;;;;;;;-1.02;100.00;98470.69;5042550;28;20411;-85
2023/11/23 01:35:33;;;;;;;112.07;27.33;;;;;;;-1.04;100.00;98464.81;5041747;28;20398;-83
2023/11/23 01:38:01;;;;;;;102.18;26.52;;;;;;;-1.05;100.00;98463.19;5042900;28;20486;-85
2023/11/23 01:40:27;;;;;;;114.73;28.00;;;;;;;-1.06;100.00;98461.56;5043069;28;20402;-84
2023/11/23 01:42:59;;;;;;;130.68;33.10;;;;;;;-1.07;100.00;98444.34;5043300;28;20402;-85
2023/11/23 01:45:26;;;;;;;167.30;38.47;;;;;;;-1.08;100.00;98444.50;5043126;28;20392;-83
2023/11/23 01:47:53;;;;;;;139.95;33.60;;;;;;;-1.07;100.00;98454.75;5043588;28;20415;-85
2023/11/23 01:50:21;;;;;;;163.23;37.72;;;;;;;-1.07;100.00;98448.72;5042819;28;20898;-86
2023/11/23 01:52:48;;;;;;;190.90;43.10;;;;;;;-1.10;100.00;98439.44;5043330;28;20395;-85
2023/11/23 01:55:14;;;;;;;180.05;43.40;;;;;;;-1.10;100.00;98438.63;5042369;28;20395;-84
2023/11/23 01:57:43;;;;;;;150.00;36.05;;;;;;;-1.10;100.00;98438.63;5041564;28;20989;-85
2023/11/23 02:00:10;;;;;;;134.02;32.63;;;;;;;-1.12;100.00;98425.78;5043397;28;20410;-86
2023/11/23 02:02:38;;;;;;;127.70;32.17;;;;;;;-1.14;100.00;98416.53;5042349;28;20399;-84
2023/11/23 02:05:05;;;;;;;108.80;27.63;;;;;;;-1.16;100.00;98411.47;5042059;28;20430;-85
2023/11/23 02:07:33;;;;;;;122.35;30.65;;;;;;;-1.15;100.00;98409.69;5042621;28;20419;-85
2023/11/23 02:09:59;;;;;;;144.25;33.92;;;;;;;-1.17;100.00;98409.84;5042201;28;20425;-86
2023/11/23 02:12:26;;;;;;;129.52;33.22;;;;;;;-1.23;100.00;98397.47;5042686;28;20430;-86
2023/11/23 02:14:54;;;;;;;127.85;31.88;;;;;;;-1.26;100.00;98397.75;5042689;28;20915;-85
2023/11/23 02:17:21;;;;;;;123.55;31.33;;;;;;;-1.32;100.00;98382.78;5043555;28;20756;-85
2023/11/23 02:19:49;;;;;;;228.73;50.53;;;;;;;-1.37;100.00;98380.66;5043391;28;20787;-85
2023/11/23 02:22:16;;;;;;;167.02;39.72;;;;;;;-1.39;100.00;98385.19;5043103;28;20414;-84
2023/11/23 02:24:45;;;;;;;220.88;47.20;;;;;;;-1.42;100.00;98382.88;5044189;28;20438;-86
2023/11/23 02:27:11;;;;;;;237.35;51.90;;;;;;;-1.41;100.00;98387.09;5043539;28;20439;-85
2023/11/23 02:29:39;;;;;;;212.50;48.17;;;;;;;-1.41;100.00;98400.09;5044191;28;20403;-86
2023/11/23 02:32:06;;;;;;;182.65;41.75;;;;;;;-1.40;100.00;98396.53;5043404;28;20391;-84
2023/11/23 02:34:32;;;;;;;185.85;41.72;;;;;;;-1.41;100.00;98388.88;5041910;28;20748;-86
2023/11/23 02:36:58;;;;;;;167.18;40.53;;;;;;;-1.45;100.00;98387.56;5045796;28;20403;-83
2023/11/23 02:39:25;;;;;;;181.60;41.17;;;;;;;-1.45;100.00;98393.56;5044559;28;20419;-83
2023/11/23 02:41:52;;;;;;;201.80;45.45;;;;;;;-1.47;100.00;98390.31;5045588;28;20423;-85
2023/11/23 02:44:19;;;;;;;222.18;47.28;;;;;;;-1.48;100.00;98388.66;5039235;28;20406;-84
2023/11/23 02:46:45;;;;;;;231.35;50.63;;;;;;;-1.50;100.00;98389.81;5039551;28;20717;-85
2023/11/23 02:49:11;;;;;;;250.30;51.45;;;;;;;-1.49;100.00;98394.81;5039143;28;20431;-82
2023/11/23 02:51:37;;;;;;;221.52;48.90;;;;;;;-1.47;100.00;98398.09;5046830;28;20406;-83
2023/11/23 02:54:04;;;;;;;253.98;54.33;;;;;;;-1.46;100.00;98386.75;5040531;28;20426;-85
2023/11/23 02:56:31;;;;;;;234.45;50.88;;;;;;;-1.45;100.00;98390.16;5041858;28;21550;-85
2023/11/23 02:58:59;;;;;;;254.70;55.63;;;;;;;-1.42;100.00;98385.47;5047667;28;20406;-85
2023/11/23 03:01:25;;;;;;;248.40;53.30;;;;;;;-1.40;100.00;98380.13;5044405;28;20764;-85
2023/11/23 03:03:54;;;;;;;232.13;50.67;;;;;;;-1.40;100.00;98378.34;5039086;28;20434;-82
2023/11/23 03:06:20;;;;;;;235.57;50.65;;;;;;;-1.40;100.00;98390.50;5039265;28;20410;-85
2023/11/23 03:08:46;;;;;;;235.48;52.15;;;;;;;-1.38;100.00;98392.00;5039084;28;20856;-84
2023/11/23 03:11:18;;;;;;;222.52;49.50;;;;;;;-1.35;100.00;98396.88;5039425;28;20403;-84
2023/11/23 03:13:44;;;;;;;197.27;42.45;;;;;;;-1.35;100.00;98403.84;5039728;28;20875;-85
2023/11/23 03:16:12;;;;;;;185.30;40.50;;;;;;;-1.39;100.00;98392.16;5040575;28;20391;-83
2023/11/23 03:18:39;;;;;;;212.52;48.20;;;;;;;-1.42;100.00;98397.63;5039728;28;20417;-84
2023/11/23 03:21:05;;;;;;;202.70;44.60;;;;;;;-1.43;100.00;98398.63;5040026;28;20406;-84
2023/11/23 03:23:32;;;;;;;212.63;45.58;;;;;;;-1.43;100.00;98401.22;5040229;28;20433;-83
2023/11/23 03:25:58;;;;;;;192.98;43.55;;;;;;;-1.47;100.00;98398.09;5039900;28;20410;-84
2023/11/23 03:28:24;;;;;;;219.00;48.40;;;;;;;-1.46;100.00;98393.72;5039940;28;20537;-85
2023/11/23 03:30:51;;;;;;;213.23;47.22;;;;;;;-1.46;100.00;98386.75;5040055;28;20403;-84
2023/11/23 03:33:18;;;;;;;209.75;44.42;;;;;;;-1.43;100.00;98385.63;5040826;28;20862;-85
2023/11/23 03:35:44;;;;;;;220.00;49.15;;;;;;;-1.40;100.00;98393.94;5040797;28;20772;-85
2023/11/23 03:38:11;;;;;;;208.73;47.22;;;;;;;-1.38;100.00;98384.22;5040942;28;20759;-84
2023/11/23 03:40:37;;;;;;;190.98;42.28;;;;;;;-1.39;100.00;98389.56;5041883;28;20394;-85
2023/11/23 03:43:03;;;;;;;206.68;43.25;;;;;;;-1.40;100.00;98395.72;5041573;28;20410;-85
2023/11/23 03:45:30;;;;;;;216.38;47.08;;;;;;;-1.41;100.00;98399.25;5041724;28;20395;-86
2023/11/23 03:47:58;;;;;;;183.73;39.90;;;;;;;-1.42;100.00;98406.25;5043011;28;20419;-84
2023/11/23 03:50:25;;;;;;;203.30;43.17;;;;;;;-1.45;100.00;98406.56;5044999;28;20453;-84
2023/11/23 03:52:51;;;;;;;184.52;40.67;;;;;;;-1.45;100.00;98403.16;5042617;28;20807;-86
2023/11/23 03:55:18;;;;;;;199.45;43.88;;;;;;;-1.47;100.00;98394.69;5041013;28;20486;-85
2023/11/23 03:57:45;;;;;;;207.93;42.60;;;;;;;-1.47;100.00;98394.69;5041333;28;20506;-84
2023/11/23 04:00:13;;;;;;;191.93;44.10;;;;;;;-1.49;100.00;98389.63;5041765;28;20402;-85
2023/11/23 04:02:39;;;;;;;189.90;43.33;;;;;;;-1.47;100.00;98387.72;5042144;28;20452;-84
2023/11/23 04:05:06;;;;;;;182.68;41.90;;;;;;;-1.45;100.00;98383.19;5042255;28;20402;-85
2023/11/23 04:07:34;;;;;;;174.90;39.40;;;;;;;-1.44;100.00;98373.63;5043547;28;20445;-85
2023/11/23 04:10:00;;;;;;;193.07;42.10;;;;;;;-1.44;100.00;98378.81;5045432;28;20460;-84
2023/11/23 04:12:26;;;;;;;164.07;37.65;;;;;;;-1.45;100.00;98382.38;5038553;28;20398;-83
2023/11/23 04:14:53;;;;;;;192.32;42.20;;;;;;;-1.49;100.00;98374.06;5037906;28;20950;-83
2023/11/23 04:17:19;;;;;;;167.30;37.70;;;;;;;-1.52;100.00;98365.75;5038366;28;20429;-82
2023/11/23 04:19:45;;;;;;;194.68;42.17;;;;;;;-1.52;100.00;98364.00;5037804;28;20422;-83
2023/11/23 04:22:11;;;;;;;199.18;42.55;;;;;;;-1.54;100.00;98371.09;5037122;28;20782;-82
2023/11/23 04:24:41;;;;;;;191.60;39.42;;;;;;;-1.57;100.00;98374.81;5040098;28;20916;-84
2023/11/23 04:27:09;;;;;;;176.90;41.97;;;;;;;-1.57;100.00;98376.59;5041335;28;20819;-83
2023/11/23 04:29:35;;;;;;;173.05;37.92;;;;;;;-1.58;100.00;98380.97;5041877;28;20913;-84
2023/11/23 04:32:01;;;;;;;145.55;33.58;;;;;;;-1.57;100.00;98381.78;5041816;28;20894;-84
2023/11/23 04:34:27;;;;;;;158.67;34.97;;;;;;;-1.59;100.00;98384.53;5041840;28;20748;-83
2023/11/23 04:36:53;;;;;;;172.05;37.53;;;;;;;-1.61;100.00;98383.88;5041807;28;20779;-83
2023/11/23 04:39:19;;;;;;;170.35;36.38;;;;;;;-1.60;100.00;98376.91;5041491;28;20391;-84
2023/11/23 04:41:47;;;;;;;153.60;35.10;;;;;;;-1.64;100.00;98371.19;5041625;28;20395;-85
2023/11/23 04:44:13;;;;;;;165.35;36.65;;;;;;;-1.62;100.00;98382.22;5041623;28;20388;-84
2023/11/23 04:46:39;;;;;;;160.25;40.63;;;;;;;-1.62;100.00;98379.63;5041422;28;20743;-83
2023/11/23 04:49:05;;;;;;;178.07;39.97;;;;;;;-1.60;100.00;98382.09;5042824;28;20775;-82
2023/11/23 04:51:32;;;;;;;176.75;39.78;;;;;;;-1.59;100.00;98381.13;5042402;28;20934;-84
2023/11/23 04:53:58;;;;;;;171.70;36.53;;;;;;;-1.57;100.00;98379.19;5042527;28;20403;-84
2023/11/23 04:56:24;;;;;;;162.90;35.95;;;;;;;-1.59;100.00;98379.34;5042712;28;20403;-82
2023/11/23 04:58:51;;;;;;;152.68;38.13;;;;;;;-1.60;100.00;98364.75;5041647;28;20894;-85
2023/11/23 05:01:17;;;;;;;178.85;40.17;;;;;;;-1.56;100.00;98362.63;5040734;28;20395;-84
2023/11/23 05:03:44;;;;;;;167.30;36.72;;;;;;;-1.56;100.00;98368.66;5043027;28;20460;-82
2023/11/23 05:06:11;;;;;;;169.55;37.40;;;;;;;-1.55;100.00;98356.47;5042668;28;20399;-83
2023/11/23 05:08:39;;;;;;;157.35;34.28;;;;;;;-1.54;100.00;98360.72;5042672;28;20415;-84
2023/11/23 05:11:05;;;;;;;155.77;36.15;;;;;;;-1.54;100.00;98359.91;5041835;28;20428;-82
2023/11/23 05:13:32;;;;;;;157.73;33.88;;;;;;;-1.53;100.00;98353.75;5040628;28;20407;-84
2023/11/23 05:16:00;;;;;;;137.77;30.63;;;;;;;-1.53;100.00;98356.34;5041263;28;20494;-82
2023/11/23 05:18:27;;;;;;;128.23;29.85;;;;;;;-1.53;100.00;98346.78;5046748;28;20422;-84
2023/11/23 05:20:54;;;;;;;145.05;32.80;;;;;;;-1.55;100.00;98346.09;5043473;28;20441;-83
2023/11/23 05:23:21;;;;;;;157.05;34.75;;;;;;;-1.52;100.00;98352.78;5041819;28;20399;-83
2023/11/23 05:25:47;;;;;;;144.95;33.60;;;;;;;-1.54;100.00;98344.31;5044577;28;20509;-84
2023/11/23 05:28:14;;;;;;;133.53;33.43;;;;;;;-1.56;100.00;98353.06;5040409;28;20492;-85
2023/11/23 05:30:40;;;;;;;147.07;32.55;;;;;;;-1.51;100.00;98351.81;5039042;28;20494;-83
2023/11/23 05:33:08;;;;;;;146.60;33.35;;;;;;;-1.51;100.00;98341.44;5039777;28;20422;-85
2023/11/23 05:35:34;;;;;;;119.05;33.13;;;;;;;-1.53;100.00;98346.78;5039147;28;20418;-84
2023/11/23 05:38:01;;;;;;;145.20;33.13;;;;;;;-1.49;100.00;98342.09;5041113;28;20449;-84
2023/11/23 05:40:27;;;;;;;130.82;30.30;;;;;;;-1.46;100.00;98354.78;5040570;28;20463;-84
2023/11/23 05:42:53;;;;;;;129.98;31.90;;;;;;;-1.48;100.00;98354.91;5043408;28;20454;-85
2023/11/23 05:45:20;;;;;;;120.72;28.35;;;;;;;-1.44;100.00;98363.22;5044455;28;20405;-85
2023/11/23 05:47:46;;;;;;;124.30;30.23;;;;;;;-1.47;100.00;98372.13;5043828;28;20932;-84
2023/11/23 05:50:14;;;;;;;128.77;30.33;;;;;;;-1.46;100.00;98378.97;5040043;28;20395;-85
2023/11/23 05:52:42;;;;;;;124.20;31.58;;;;;;;-1.47;100.00;98389.50;5034309;28;20407;-83
2023/11/23 05:55:09;;;;;;;111.72;30.45;;;;;;;-1.45;100.00;98379.78;5040417;28;20449;-84
2023/11/23 05:57:35;;;;;;;122.47;31.80;;;;;;;-1.44;100.00;98384.81;5041270;28;20409;-84
2023/11/23 06:00:04;;;;;;;127.60;29.63;;;;;;;-1.42;100.00;98379.44;5042177;28;20407;-85
2023/11/23 06:02:30;;;;;;;120.80;30.27;;;;;;;-1.45;100.00;98383.19;5041053;28;20399;-84
2023/11/23 06:04:56;;;;;;;124.32;31.13;;;;;;;-1.46;100.00;98370.34;5040404;28;20404;-86
2023/11/23 06:07:23;;;;;;;109.37;27.33;;;;;;;-1.45;100.00;98369.38;5038536;28;20459;-86
2023/11/23 06:09:51;;;;;;;99.95;25.90;;;;;;;-1.48;100.00;98378.28;5044582;28;20470;-82
2023/11/23 06:12:17;;;;;;;106.22;25.13;;;;;;;-1.49;100.00;98376.66;5054827;28;20412;-84
2023/11/23 06:14:43;;;;;;;117.53;29.98;;;;;;;-1.49;100.00;98384.44;5045313;28;20397;-84
2023/11/23 06:17:10;;;;;;;116.55;28.73;;;;;;;-1.46;100.00;98388.53;5059906;28;20390;-84
2023/11/23 06:19:36;;;;;;;113.38;28.65;;;;;;;-1.48;100.00;98382.66;5061441;28;20434;-85
2023/11/23 06:22:03;;;;;;;109.65;31.17;;;;;;;-1.48;100.00;98380.88;5059916;28;20461;-84
2023/11/23 06:24:30;;;;;;;123.90;31.08;;;;;;;-1.45;100.00;98380.59;5060053;28;20734;-85
2023/11/23 06:26:57;;;;;;;106.85;30.05;;;;;;;-1.44;100.00;98373.63;5059976;28;20389;-85
2023/11/23 06:29:23;;;;;;;121.55;30.30;;;;;;;-1.40;100.00;98383.53;5060109;28;20444;-83
2023/11/23 06:31:50;;;;;;;116.03;30.85;;;;;;;-1.39;100.00;98386.97;5062167;28;20401;-82
2023/11/23 06:34:16;;;;;;;115.05;29.23;;;;;;;-1.38;100.00;98386.81;5060150;28;20632;-83
2023/11/23 06:36:42;;;;;;;117.28;30.33;;;;;;;-1.38;100.00;98393.78;5060708;28;20396;-86
2023/11/23 06:39:09;;;;;;;98.30;26.45;;;;;;;-1.38;100.00;98391.19;5061267;28;20404;-86
2023/11/23 06:41:37;;;;;;;104.63;28.30;;;;;;;-1.38;100.00;98391.19;5063858;28;20405;-86
2023/11/23 06:44:03;;;;;;;104.13;29.23;;;;;;;-1.39;100.00;98392.16;5063596;28;20405;-83
2023/11/23 06:46:30;;;;;;;104.65;27.55;;;;;;;-1.37;100.00;98388.44;5059135;28;20436;-84
2023/11/23 06:48:56;;;;;;;109.77;27.83;;;;;;;-1.35;100.00;98380.47;5059261;28;20453;-84
2023/11/23 06:51:22;;;;;;;108.00;29.75;;;;;;;-1.35;100.00;98389.09;5062371;28;20386;-85
2023/11/23 06:53:49;;;;;;;117.93;30.20;;;;;;;-1.35;100.00;98381.28;5064284;28;20456;-84
2023/11/23 06:56:16;;;;;;;99.28;28.98;;;;;;;-1.35;100.00;98383.91;5068565;28;20402;-83
2023/11/23 06:58:48;;;;;;;96.70;29.00;;;;;;;-1.33;100.00;98381.16;5057707;28;20723;-84
2023/11/23 07:01:15;;;;;;;95.90;29.15;;;;;;;-1.29;100.00;98380.72;5057767;28;20397;-82
2023/11/23 07:03:42;;;;;;;92.15;27.60;;;;;;;-1.27;100.00;98373.56;5040676;28;20411;-82
2023/11/23 07:06:09;;;;;;;105.00;28.15;;;;;;;-1.20;100.00;98378.97;5035160;28;20399;-79
2023/11/23 07:08:35;;;;;;;99.20;28.45;;;;;;;-1.21;100.00;98375.56;5034020;28;20411;-80
2023/11/23 07:11:05;;;;;;;83.63;26.85;;;;;;;-1.19;100.00;98378.00;5039878;28;20434;-79
2023/11/23 07:13:32;;;;;;;107.30;27.63;;;;;;;-1.17;100.00;98381.28;5048349;28;20397;-81
2023/11/23 07:16:01;;;;;;;89.68;25.60;;;;;;;-1.17;100.00;98376.88;5043413;28;20391;-78
2023/11/23 07:18:28;;;;;;;82.25;24.85;;;;;;;-1.18;100.00;98374.44;5034310;28;20423;-78
2023/11/23 07:20:55;;;;;;;78.18;25.17;;;;;;;-1.19;100.00;98362.41;5042773;28;20659;-81
2023/11/23 07:23:21;;;;;;;80.82;25.80;;;;;;;-1.19;100.00;98370.22;5055761;28;20454;-81
2023/11/23 07:25:47;;;;;;;90.13;26.17;;;;;;;-1.18;100.00;98367.47;5056741;28;20406;-80
2023/11/23 07:28:14;;;;;;;88.80;25.50;;;;;;;-1.14;100.00;98370.59;5046214;28;20423;-80
2023/11/23 07:30:40;;;;;;;86.13;25.48;;;;;;;-1.14;100.00;98372.38;5042274;28;20399;-81
2023/11/23 07:33:08;;;;;;;89.55;25.30;;;;;;;-1.12;100.00;98379.03;5038347;28;20446;-78
2023/11/23 07:35:34;;;;;;;78.55;25.10;;;;;;;-1.11;100.00;98370.25;5035223;28;20415;-79
2023/11/23 07:38:03;;;;;;;87.60;25.05;;;;;;;-1.03;100.00;98372.09;5050835;28;20417;-84
2023/11/23 07:40:29;;;;;;;84.43;25.40;;;;;;;-1.01;100.00;98372.75;5042796;28;20411;-79
2023/11/23 07:42:57;;;;;;;83.45;25.55;;;;;;;-0.94;100.00;98373.78;5040386;28;20407;-82
2023/11/23 07:45:23;;;;;;;80.57;25.13;;;;;;;-0.90;100.00;98375.09;5041526;28;20418;-81
2023/11/23 07:47:49;;;;;;;78.72;25.00;;;;;;;-0.86;100.00;98372.03;5039632;28;20805;-80
2023/11/23 07:50:17;;;;;;;79.68;25.45;;;;;;;-0.82;100.00;98372.53;5042693;28;20403;-79
2023/11/23 07:52:43;;;;;;;74.38;25.48;;;;;;;-0.79;100.00;98372.22;5041166;28;20430;-80
2023/11/23 07:55:12;;;;;;;87.07;26.40;;;;;;;-0.77;100.00;98370.31;5040229;28;20430;-78
2023/11/23 07:57:38;;;;;;;79.63;25.13;;;;;;;-0.73;100.00;98360.38;5035847;28;20466;-78
2023/11/23 08:00:07;;;;;;;73.63;24.55;;;;;;;-0.62;100.00;98360.94;5045137;28;20407;-85
2023/11/23 08:02:33;;;;;;;76.43;24.42;;;;;;;-0.47;100.00;98363.75;5038349;28;20391;-79
2023/11/23 08:04:59;;;;;;;78.10;25.10;;;;;;;-0.40;100.00;98359.56;5041077;28;20395;-80
2023/11/23 08:07:27;;;;;;;78.85;25.25;;;;;;;-0.28;100.00;98367.88;5038999;28;20505;-79
2023/11/23 08:09:55;;;;;;;79.07;24.05;;;;;;;-0.21;100.00;98372.28;5036011;28;20876;-79
2023/11/23 08:12:21;;;;;;;61.30;22.73;;;;;;;-0.24;100.00;98367.41;5038986;28;20461;-80
2023/11/23 08:14:47;;;;;;;74.72;23.67;;;;;;;-0.10;100.00;98358.19;5038196;28;20406;-79
2023/11/23 08:17:13;;;;;;;78.07;23.25;;;;;;;-0.01;100.00;98359.81;5038465;28;20402;-79
2023/11/23 08:19:39;;;;;;;77.22;23.45;;;;;;;0.13;100.00;98366.19;5037433;28;20399;-80
2023/11/23 08:22:08;;;;;;;71.93;23.92;;;;;;;0.22;100.00;98367.81;5036183;28;20486;-78
2023/11/23 08:24:35;;;;;;;66.15;22.45;;;;;;;0.33;100.00;98364.88;5034192;28;20485;-79
2023/11/23 08:27:02;;;;;;;65.40;22.70;;;;;;;0.43;100.00;98365.56;5036995;28;20498;-79
2023/11/23 08:29:29;;;;;;;58.75;22.27;;;;;;;0.42;100.00;98360.50;5036394;28;20423;-78
2023/11/23 08:31:56;;;;;;;54.63;21.48;;;;;;;0.46;100.00;98367.00;5036424;28;20399;-80
2023/11/23 08:34:22;;;;;;;56.47;20.90;;;;;;;0.58;100.00;98353.50;5044216;28;20395;-80
2023/11/23 08:36:48;;;;;;;53.77;20.53;;;;;;;0.74;100.00;98357.88;5039384;28;20402;-79
2023/11/23 08:39:14;;;;;;;46.72;20.23;;;;;;;0.87;100.00;98366.00;5038044;28;20406;-79
2023/11/23 08:41:42;;;;;;;51.08;20.67;;;;;;;0.90;100.00;98367.47;5038149;28;20441;-80
2023/11/23 08:44:08;;;;;;;49.03;19.25;;;;;;;0.96;100.00;98361.59;5038493;28;20880;-80
2023/11/23 08:46:35;;;;;;;49.67;18.90;;;;;;;1.02;100.00;98358.31;5039546;28;20399;-79
2023/11/23 08:49:01;;;;;;;35.53;17.13;;;;;;;1.03;100.00;98350.34;5039612;28;20517;-80
2023/11/23 08:51:28;;;;;;;41.90;18.20;;;;;;;1.12;100.00;98351.94;5036279;28;20395;-80
2023/11/23 08:53:55;;;;;;;37.75;16.48;;;;;;;1.17;100.00;98343.63;5039977;28;20420;-78
2023/11/23 08:56:21;;;;;;;31.07;15.43;;;;;;;1.28;100.00;98350.28;5038440;28;20398;-79
2023/11/23 08:58:49;;;;;;;37.77;15.23;;;;;;;1.48;100.00;98348.88;5037061;28;20410;-80
2023/11/23 09:01:15;;;;;;;36.63;15.10;;;;;;;1.44;100.00;98337.97;5046694;28;20399;-80
2023/11/23 09:03:41;;;;;;;30.40;13.25;;;;;;;1.49;100.00;98337.47;5045050;28;20816;-81
2023/11/23 09:06:09;;;;;;;28.80;13.15;;;;;;;1.47;100.00;98328.97;5042750;28;20453;-80
2023/11/23 09:08:40;;;;;;;24.77;12.07;;;;;;;1.62;100.00;98336.91;5042730;28;20513;-80
2023/11/23 09:11:06;;;;;;;23.13;12.30;;;;;;;1.69;100.00;98322.19;5041191;28;20515;-80
2023/11/23 09:13:32;;;;;;;22.05;12.07;;;;;;;1.71;100.00;98326.25;5044445;28;20395;-79
2023/11/23 09:16:00;;;;;;;20.98;11.45;;;;;;;1.77;100.00;98327.38;5043788;28;20391;-80
2023/11/23 09:18:26;;;;;;;19.95;11.30;;;;;;;1.81;100.00;98328.63;5040215;28;20399;-81
2023/11/23 09:20:52;;;;;;;18.40;10.70;;;;;;;1.89;100.00;98324.19;5040285;28;20399;-80
2023/11/23 09:23:18;;;;;;;18.48;10.20;;;;;;;1.89;100.00;98318.97;5043189;28;20430;-80
2023/11/23 09:25:45;;;;;;;20.83;9.88;;;;;;;1.95;100.00;98320.09;5044808;28;20421;-80
2023/11/23 09:28:11;;;;;;;16.47;9.50;;;;;;;1.97;100.00;98319.88;5042741;28;20415;-81
2023/11/23 09:30:38;;;;;;;14.02;9.00;;;;;;;2.11;100.00;98329.56;5041658;28;20418;-80
2023/11/23 09:33:09;;;;;;;15.77;8.77;;;;;;;2.09;100.00;98323.75;5038507;28;20848;-81
2023/11/23 09:35:37;;;;;;;16.13;8.90;;;;;;;2.11;100.00;98313.91;5038054;28;20444;-80
2023/11/23 09:38:04;;;;;;;18.65;8.63;;;;;;;2.13;100.00;98302.31;5038841;28;20399;-80
2023/11/23 09:40:31;;;;;;;16.20;8.33;;;;;;;2.19;100.00;98300.78;5040098;28;20430;-80
2023/11/23 09:42:57;;;;;;;14.10;8.10;;;;;;;2.28;100.00;98304.97;5037459;28;20410;-80
2023/11/23 09:45:24;;;;;;;15.15;8.63;;;;;;;2.43;100.00;98297.16;5037998;28;20461;-80
2023/11/23 09:47:51;;;;;;;10.85;7.80;;;;;;;2.46;100.00;98289.00;5034045;28;20430;-80
2023/11/23 09:50:20;;;;;;;9.13;6.85;;;;;;;2.60;100.00;98288.19;5036006;28;20471;-81
2023/11/23 09:52:47;;;;;;;15.75;7.38;;;;;;;2.54;100.00;98287.13;5037804;28;20399;-80
2023/11/23 09:55:16;;;;;;;12.95;7.55;;;;;;;2.58;100.00;98282.34;5038478;28;20439;-80
2023/11/23 09:57:44;;;;;;;14.35;7.50;;;;;;;2.59;100.00;98281.34;5042014;28;20452;-81
2023/11/23 10:00:14;;;;;;;14.80;7.82;;;;;;;2.56;100.00;98266.81;5046606;28;20479;-81
2023/11/23 10:02:41;;;;;;;10.90;7.03;;;;;;;2.67;100.00;98276.03;5036651;28;20455;-81
2023/11/23 10:05:11;;;;;;;12.63;7.03;;;;;;;2.79;100.00;98269.38;5035122;28;20399;-82
2023/11/23 10:07:40;;;;;;;13.77;6.88;;;;;;;2.87;100.00;98261.44;5038717;28;20444;-80
2023/11/23 10:10:08;;;;;;;9.90;6.78;;;;;;;2.97;100.00;98253.31;5030926;28;20446;-80
2023/11/23 10:12:34;;;;;;;12.43;7.25;;;;;;;3.06;100.00;98254.84;5032707;28;20487;-81
2023/11/23 10:15:01;;;;;;;12.98;7.13;;;;;;;3.24;100.00;98250.03;5035608;28;20408;-82
2023/11/23 10:17:27;;;;;;;9.98;6.50;;;;;;;3.34;100.00;98242.72;5034029;28;20792;-80
2023/11/23 10:20:03;;;;;;;10.68;6.53;;;;;;;3.38;100.00;98237.94;5026296;28;20903;-81
2023/11/23 10:22:30;;;;;;;8.52;6.10;;;;;;;3.46;100.00;98243.84;5030867;28;20455;-80
2023/11/23 10:24:59;;;;;;;11.48;6.55;;;;;;;3.43;100.00;98246.84;5038182;28;20402;-81
2023/11/23 10:27:25;;;;;;;11.07;6.40;;;;;;;3.43;100.00;98238.19;5037860;28;20444;-81
2023/11/23 10:29:51;;;;;;;12.15;6.35;;;;;;;3.38;100.00;98237.94;5035026;28;20445;-81
2023/11/23 10:32:18;;;;;;;10.20;6.25;;;;;;;3.42;100.00;98237.38;5037569;28;20427;-80
2023/11/23 10:34:45;;;;;;;9.65;6.05;;;;;;;3.45;100.00;98228.34;5041039;28;20397;-80
2023/11/23 10:37:16;;;;;;;10.90;6.28;;;;;;;3.33;100.00;98221.97;5036359;28;20418;-81
2023/11/23 10:39:43;;;;;;;10.48;6.25;;;;;;;3.37;100.00;98226.66;5037459;28;20472;-80
2023/11/23 10:42:11;;;;;;;9.32;6.18;;;;;;;3.35;100.00;98223.41;5036925;28;20407;-80
2023/11/23 10:44:39;;;;;;;7.90;6.10;;;;;;;3.39;100.00;98219.41;5036848;28;20434;-80
2023/11/23 10:47:07;;;;;;;10.10;6.65;;;;;;;3.47;100.00;98224.53;5037533;28;20451;-80
2023/11/23 10:49:34;;;;;;;11.45;6.47;;;;;;;3.51;100.00;98225.00;5036808;28;20725;-80
2023/11/23 10:52:00;;;;;;;9.80;6.77;;;;;;;3.48;100.00;98212.25;5038189;28;20415;-80
2023/11/23 10:54:27;;;;;;;8.90;5.90;;;;;;;3.62;100.00;98214.00;5036290;28;20404;-81
2023/11/23 10:56:57;;;;;;;9.55;7.15;;;;;;;3.66;100.00;98196.97;5037532;28;20402;-82
2023/11/23 10:59:26;;;;;;;9.23;6.32;;;;;;;3.67;100.00;98200.38;5035407;28;20776;-81
2023/11/23 11:01:55;;;;;;;8.90;5.63;;;;;;;3.73;100.00;98191.78;5036642;28;20438;-82
2023/11/23 11:04:23;;;;;;;11.55;6.15;;;;;;;3.71;100.00;98191.16;5037134;28;20543;-81